This is the latest recevied weather packets stored in our database for station/object KQ4JKJ. If no packets are shown the sender has not sent any weather packets the latest 10 day(s).
| Time | Temp. | Humidity | Pressure | Rain* | Wind** | Luminosity | Snow |
|---|---|---|---|---|---|---|---|
| 1777308911 | 26.11° C | 78% | 1011.1 hPa | 0 mm | - | 378 W/m² | - |
| 1777308606 | 26.67° C | 78% | 1011.2 hPa | 0 mm | - | 232 W/m² | - |
| 1777308302 | 26.67° C | 78% | 1011.2 hPa | 0 mm | - | 229 W/m² | - |
| 1777307997 | 27.22° C | 77% | 1011.1 hPa | 0 mm | - | 370 W/m² | - |
| 1777307696 | 26.67° C | 78% | 1011 hPa | 0 mm | - | 901 W/m² | - |
| 1777307392 | 27.22° C | 77% | 1011 hPa | 0 mm | - | 892 W/m² | - |
| 1777307089 | 26.67° C | 78% | 1011.1 hPa | 0 mm | - | 855 W/m² | - |
| 1777306787 | 26.67° C | 79% | 1011 hPa | 0 mm | - | 394 W/m² | - |
| 1777306484 | 26.67° C | 79% | 1011 hPa | 0 mm | - | 728 W/m² | - |
| 1777306179 | 26.11° C | 79% | 1011.2 hPa | 0 mm | - | 633 W/m² | - |
| 1777305875 | 27.22° C | 77% | 1011 hPa | 0 mm | - | 293 W/m² | - |
| 1777305571 | 26.67° C | 78% | 1011.1 hPa | 0 mm | - | 668 W/m² | - |
| 1777305267 | 27.22° C | 78% | 1011.1 hPa | 0 mm | - | 459 W/m² | - |
| 1777304961 | 27.22° C | 77% | 1011 hPa | 0 mm | - | 813 W/m² | - |
| 1777304658 | 26.67° C | 77% | 1011 hPa | 0 mm | - | 442 W/m² | - |
| 1777304355 | 27.22° C | 79% | 1011.1 hPa | 0 mm | - | 314 W/m² | - |
| 1777304052 | 27.22° C | 79% | 1011.2 hPa | 0 mm | - | 748 W/m² | - |
| 1777303749 | 26.67° C | 82% | 1011.1 hPa | 0 mm | - | 753 W/m² | - |
| 1777303446 | 25° C | 86% | 1011 hPa | 0 mm | - | 719 W/m² | - |
| 1777303143 | 24.44° C | 88% | 1011 hPa | 0 mm | - | 634 W/m² | - |
| 1777302842 | 25° C | 87% | 1011 hPa | 0 mm | - | 129 W/m² | - |
| 1777302538 | 25.56° C | 84% | 1010.9 hPa | 0 mm | - | 782 W/m² | - |
| 1777302236 | 27.22° C | 81% | 1011.1 hPa | 0 mm | - | 186 W/m² | - |
| 1777301933 | 26.67° C | 79% | 1010.9 hPa | 0 mm | - | 733 W/m² | - |
| 1777301631 | 27.22° C | 79% | 1010.8 hPa | 0 mm | - | 222 W/m² | - |
* Rain latest hour (hover to see other rain measurements)
** Current wind speed in m/s (hover to see current wind gust speed)